aviador You're here:

KBTM Decoded Metar

BUTTE in MT, USA
Report Time2018-01-21 17:53:00
UTC Time2018-01-21 18:20:15
Flight Rules vfr VFR
Wind140° at 03 kt
W.Decomp.*RWY 12: 3.0 kt HW 0.2 kt RCW
RWY 15: 2.7 kt HW 1.3 kt LCW
W.Rank140° ranks 4
Current wind is below 140° avg. (5.1)
Visibility9999 m
Phenomena:N/A
Clouds:N/A
Expected CloudBase > 1,200 ft AGL from Temp-Dew spread
CeilingNone
Temp-14°C (ISA -18)
Dew Point-17°C (78% RH)
AAT-18.5°C
QNH1020 hPa
Density Alt3,104 ft
Elevation5,538 ft
Report Wrong Elevation
Raw Report
METAR KBTM 211753Z AUTO 14003KT 10SM CLR M14/M17 A3011 RMK AO2 SLP275
I6000 T11441167 11117 21200 51009=

Extra information for KBTM:More info

Metar Taf Metar & Taf Last 4 Metars F.Rules Stats Wind Profile Meteogram Temp Stats Airport Information Weather charts Add Link Nearby VenuesMetar ALERT Operation Metar Decoded Social comments

AIRNAV info for KBTM